Time;durP1;ratioP1;P1;durP2;ratioP2;P2;SDS_P1;SDS_P2;PMS_P1;PMS_P2;Temp;Humidity;BMP_temperature;BMP_pressure;BME280_temperature;BME280_humidity;BME280_pressure;Samples;Min_cycle;Max_cycle;Signal;HPM_P1;HPM_P2
2022/11/02 05:03:49;;;;;;;20.50;6.05;;;;;;;8.54;80.38;101746.13;5077607;27;2069707;-84
2022/11/02 05:06:16;;;;;;;10.63;7.90;;;;;;;8.57;79.40;101734.91;5076318;28;20067;-84
2022/11/02 05:08:41;;;;;;;15.13;7.82;;;;;;;8.73;78.93;101736.25;5075745;28;20480;-84
2022/11/02 05:11:07;;;;;;;25.30;9.38;;;;;;;8.88;78.15;101740.19;5076722;28;20027;-84
2022/11/02 05:13:33;;;;;;;43.85;8.57;;;;;;;9.10;77.61;101743.94;5092972;28;20038;-84
2022/11/02 05:15:58;;;;;;;17.42;9.10;;;;;;;9.09;76.70;101720.75;5075521;28;20028;-85
2022/11/02 05:18:24;;;;;;;22.42;10.90;;;;;;;9.33;76.61;101738.19;5110461;28;20059;-84
2022/11/02 05:20:51;;;;;;;12.95;7.95;;;;;;;9.44;75.69;101746.53;5110054;28;20410;-86
2022/11/02 05:23:17;;;;;;;15.98;9.13;;;;;;;9.54;75.73;101746.25;5072992;28;20054;-81
2022/11/02 05:25:42;;;;;;;14.48;8.55;;;;;;;9.61;74.77;101742.63;5088721;28;20030;-82
2022/11/02 05:28:08;;;;;;;17.50;9.25;;;;;;;9.59;74.44;101739.25;5065158;28;20032;-90
2022/11/02 05:30:33;;;;;;;14.85;7.78;;;;;;;9.71;75.00;101759.56;5056392;28;20023;-88
2022/11/02 05:32:59;;;;;;;18.15;9.45;;;;;;;9.69;74.30;101753.59;5073398;28;20038;-85
2022/11/02 05:35:24;;;;;;;21.05;10.80;;;;;;;9.79;74.33;101762.78;5088390;28;20123;-82
2022/11/02 05:37:50;;;;;;;15.60;9.43;;;;;;;9.97;76.14;101772.63;5089569;28;20081;-81
2022/11/02 05:40:15;;;;;;;26.27;12.13;;;;;;;10.67;72.73;101749.03;5072628;28;20054;-88
2022/11/02 05:42:41;;;;;;;33.80;18.70;;;;;;;10.60;72.21;101758.72;5058085;28;20027;-91
2022/11/02 05:45:07;;;;;;;27.75;13.50;;;;;;;10.43;71.91;101768.75;5075812;28;20025;-94
2022/11/02 05:47:33;;;;;;;22.95;10.75;;;;;;;10.43;72.01;101778.25;5065641;28;20425;-85
2022/11/02 05:49:58;;;;;;;23.25;10.25;;;;;;;10.44;72.81;101780.78;5032022;28;20037;-82
2022/11/02 05:52:24;;;;;;;21.15;8.82;;;;;;;10.43;73.68;101786.84;5068180;28;20025;-95
2022/11/02 05:54:49;;;;;;;21.95;10.00;;;;;;;10.53;72.80;101783.09;5036713;28;20031;-91
2022/11/02 05:57:18;;;;;;;19.20;11.35;;;;;;;10.84;72.04;101802.84;5066008;28;20028;-95
2022/11/02 05:59:43;;;;;;;17.35;9.93;;;;;;;10.72;72.53;101787.72;5039139;28;20419;-95
2022/11/02 06:02:09;;;;;;;20.95;11.10;;;;;;;10.82;72.83;101800.31;5040647;28;20053;-88
2022/11/02 06:04:34;;;;;;;22.35;12.32;;;;;;;10.71;72.37;101786.00;5052059;28;20542;-87
2022/11/02 06:07:00;;;;;;;31.33;11.85;;;;;;;10.67;72.24;101789.59;5048714;28;20028;-93
2022/11/02 06:09:25;;;;;;;18.50;10.43;;;;;;;10.76;74.36;101804.84;5046508;28;20059;-88
2022/11/02 06:11:51;;;;;;;25.75;11.10;;;;;;;10.74;73.26;101796.28;5064963;28;20052;-95
2022/11/02 06:14:16;;;;;;;23.58;11.50;;;;;;;10.80;73.70;101788.31;5044982;28;20036;-94
2022/11/02 06:16:42;;;;;;;20.67;11.05;;;;;;;10.77;73.69;101783.22;5025631;28;20028;-93
2022/11/02 06:19:10;;;;;;;20.77;11.23;;;;;;;11.08;75.19;101804.66;5055615;28;20029;-95
2022/11/02 06:21:36;;;;;;;22.08;10.63;;;;;;;11.07;73.68;101802.97;5058161;28;20029;-88
2022/11/02 06:24:01;;;;;;;17.65;10.55;;;;;;;11.06;73.88;101783.16;5041108;28;20074;-87
2022/11/02 06:26:27;;;;;;;24.00;12.02;;;;;;;11.03;72.45;101783.25;5062855;28;20033;-94
2022/11/02 06:28:52;;;;;;;22.50;11.52;;;;;;;11.10;72.07;101808.03;5086989;28;20028;-91
2022/11/02 06:31:18;;;;;;;20.73;10.90;;;;;;;11.08;73.03;101791.72;5055962;28;20059;-87
2022/11/02 06:33:44;;;;;;;28.50;11.70;;;;;;;10.92;73.21;101762.03;5044959;28;20478;-86
2022/11/02 06:36:09;;;;;;;22.80;12.40;;;;;;;11.25;73.07;101803.28;5054409;28;20112;-86
2022/11/02 06:38:37;;;;;;;21.08;11.98;;;;;;;11.38;72.81;101810.56;5041916;28;20151;-87
2022/11/02 06:41:05;;;;;;;17.83;10.88;;;;;;;11.41;73.21;101784.56;5078864;28;20085;-82
2022/11/02 06:43:30;;;;;;;23.60;12.40;;;;;;;11.73;71.76;101800.75;5034335;28;20524;-84
2022/11/02 06:45:57;;;;;;;21.70;11.02;;;;;;;11.78;72.57;101794.50;5051387;28;20040;-93
2022/11/02 06:48:22;;;;;;;23.23;11.60;;;;;;;11.68;72.20;101787.94;5048704;28;20021;-91
2022/11/02 06:50:48;;;;;;;21.48;10.68;;;;;;;11.70;71.86;101795.66;5022859;28;20106;-90
2022/11/02 06:53:13;;;;;;;21.70;10.55;;;;;;;11.69;72.14;101788.78;5069228;28;20383;-82
2022/11/02 06:55:39;;;;;;;22.58;11.48;;;;;;;11.84;73.35;101797.81;5070505;28;20082;-82
2022/11/02 06:58:04;;;;;;;17.77;10.85;;;;;;;11.67;72.72;101754.31;5071860;28;20402;-82
2022/11/02 07:00:30;;;;;;;30.48;13.82;;;;;;;12.09;73.09;101806.38;5066754;28;20423;-82
2022/11/02 07:03:14;;;;;;;24.23;13.27;;;;;;;12.29;73.72;101806.53;5036888;28;20056;-82
2022/11/02 07:05:40;;;;;;;43.80;14.40;;;;;;;12.30;71.86;101804.78;5033686;28;20501;-82
2022/11/02 07:08:05;;;;;;;27.58;14.63;;;;;;;12.33;70.74;101808.09;5030525;28;20028;-82
2022/11/02 07:10:31;;;;;;;30.73;13.68;;;;;;;12.63;68.09;101802.66;5051719;28;20029;-84
2022/11/02 07:12:57;;;;;;;22.63;12.55;;;;;;;12.75;67.48;101798.72;5033443;28;20116;-83
2022/11/02 07:15:24;;;;;;;37.90;14.35;;;;;;;12.83;65.77;101773.28;5034459;28;20498;-83
2022/11/02 07:17:51;;;;;;;26.63;12.60;;;;;;;12.82;67.67;101780.25;5040660;28;20464;-86
2022/11/02 07:20:16;;;;;;;26.13;12.80;;;;;;;12.92;67.87;101796.31;5053632;28;20028;-82
2022/11/02 07:22:42;;;;;;;24.05;11.82;;;;;;;12.85;68.46;101764.53;5021373;28;20052;-83
2022/11/02 07:25:08;;;;;;;26.33;13.00;;;;;;;13.02;67.95;101781.19;5054365;28;20025;-92
2022/11/02 07:27:38;;;;;;;29.27;13.32;;;;;;;13.06;67.03;101772.34;5036058;28;20079;-82
2022/11/02 07:30:04;;;;;;;23.48;12.52;;;;;;;13.14;66.77;101771.13;5017188;28;20029;-84
2022/11/02 07:32:29;;;;;;;27.55;12.23;;;;;;;13.20;67.15;101770.09;5049424;28;20020;-83
2022/11/02 07:34:55;;;;;;;22.58;11.75;;;;;;;13.29;67.17;101777.50;5063428;28;20021;-88
2022/11/02 07:37:20;;;;;;;26.17;11.50;;;;;;;13.23;67.50;101756.94;5048590;28;20457;-89
2022/11/02 07:39:46;;;;;;;22.85;11.45;;;;;;;13.50;67.29;101773.13;5054366;28;20058;-83
2022/11/02 07:42:11;;;;;;;22.65;11.48;;;;;;;13.66;66.33;101766.34;5016803;28;20025;-85
2022/11/02 07:44:37;;;;;;;20.73;11.88;;;;;;;13.72;66.27;101767.84;5058514;28;20056;-80
2022/11/02 07:47:03;;;;;;;20.95;10.77;;;;;;;13.78;65.77;101765.00;5042051;28;20017;-85
2022/11/02 07:49:28;;;;;;;24.58;11.70;;;;;;;13.92;66.40;101760.00;5051421;28;20032;-85
2022/11/02 07:51:55;;;;;;;19.58;11.50;;;;;;;14.30;64.54;101760.03;5034148;28;20087;-87
2022/11/02 07:54:20;;;;;;;27.20;10.25;;;;;;;14.51;64.34;101748.63;5049260;28;20524;-81
2022/11/02 07:56:46;;;;;;;26.10;12.23;;;;;;;14.73;62.73;101768.44;5033193;28;20021;-89
2022/11/02 07:59:12;;;;;;;21.95;11.35;;;;;;;14.67;62.27;101753.13;5019455;28;20064;-85
2022/11/02 08:01:37;;;;;;;22.40;12.23;;;;;;;14.88;62.37;101762.50;5035495;28;20029;-84
2022/11/02 08:04:03;;;;;;;22.02;12.07;;;;;;;14.87;61.77;101739.97;5036337;28;20421;-85
2022/11/02 08:06:28;;;;;;;21.60;11.70;;;;;;;15.03;62.37;101756.50;5052971;28;20075;-85
2022/11/02 08:08:54;;;;;;;25.75;12.73;;;;;;;15.14;62.63;101753.38;5049406;28;20035;-94
2022/11/02 08:11:19;;;;;;;23.75;11.63;;;;;;;15.07;62.47;101732.00;5016579;28;20025;-86
2022/11/02 08:13:45;;;;;;;25.60;12.88;;;;;;;15.42;62.03;101742.38;5048944;28;20021;-84
2022/11/02 08:16:10;;;;;;;28.48;12.20;;;;;;;15.47;62.31;101741.25;5032973;28;20017;-86
2022/11/02 08:18:36;;;;;;;23.27;12.20;;;;;;;15.67;61.56;101749.81;5032810;28;20127;-94
2022/11/02 08:21:01;;;;;;;21.80;13.05;;;;;;;15.71;61.52;101707.84;5017332;28;20444;-83
2022/11/02 08:23:27;;;;;;;29.05;15.02;;;;;;;15.95;61.13;101733.56;5064564;28;20036;-84
2022/11/02 08:25:53;;;;;;;21.55;12.65;;;;;;;16.25;60.93;101750.16;5035586;28;20044;-83
2022/11/02 08:28:23;;;;;;;30.60;13.85;;;;;;;16.35;59.60;101740.91;5032726;28;20048;-92
2022/11/02 08:30:49;;;;;;;27.10;13.00;;;;;;;16.60;58.84;101739.50;5049338;28;20074;-80
2022/11/02 08:33:15;;;;;;;32.05;15.35;;;;;;;16.80;59.05;101736.63;5032508;28;20030;-82
2022/11/02 08:35:41;;;;;;;30.73;14.20;;;;;;;16.98;58.04;101739.13;5049228;28;20040;-88
2022/11/02 08:38:08;;;;;;;30.88;14.60;;;;;;;17.06;56.84;101711.59;5049396;28;20389;-82
2022/11/02 08:40:34;;;;;;;34.17;14.88;;;;;;;17.38;55.83;101733.22;5052252;28;20059;-90
2022/11/02 08:43:00;;;;;;;33.22;14.95;;;;;;;17.61;54.79;101733.63;5017382;28;20028;-93
2022/11/02 08:45:26;;;;;;;31.75;13.60;;;;;;;17.96;54.80;101731.47;5048998;28;20031;-87
2022/11/02 08:47:52;;;;;;;38.88;16.30;;;;;;;18.13;53.66;101735.66;5032055;28;20029;-86
2022/11/02 08:50:17;;;;;;;39.38;17.40;;;;;;;18.39;51.18;101727.00;5031940;28;20035;-82
2022/11/02 08:52:43;;;;;;;51.50;19.80;;;;;;;18.59;52.28;101728.31;5085249;28;20113;-89
2022/11/02 08:55:08;;;;;;;27.17;12.95;;;;;;;18.70;52.64;101706.69;5065867;28;20033;-88
2022/11/02 08:57:47;;;;;;;36.42;13.15;;;;;;;19.03;50.41;101725.41;5032171;28;20056;-90
2022/11/02 09:00:13;;;;;;;28.15;13.25;;;;;;;19.13;49.97;101715.97;5045468;28;20025;-89
2022/11/02 09:02:38;;;;;;;31.45;12.98;;;;;;;19.46;51.03;101731.19;5036766;28;20045;-90
2022/11/02 09:05:04;;;;;;;40.80;18.85;;;;;;;19.68;50.26;101714.84;5051505;28;20447;-94
2022/11/02 09:07:29;;;;;;;32.10;14.32;;;;;;;19.87;49.20;101719.66;5036242;28;20024;-83
2022/11/02 09:09:56;;;;;;;37.03;12.20;;;;;;;20.09;48.76;101713.69;5049845;28;20059;-94
2022/11/02 09:12:21;;;;;;;25.80;12.70;;;;;;;20.38;49.34;101713.38;5049933;28;20023;-86
2022/11/02 09:14:46;;;;;;;30.88;10.88;;;;;;;20.66;47.36;101709.59;5049082;28;20402;-83
2022/11/02 09:17:12;;;;;;;20.10;9.20;;;;;;;20.87;44.31;101694.84;5048186;28;20497;-90
2022/11/02 09:19:37;;;;;;;25.75;9.13;;;;;;;21.14;44.14;101702.44;5035454;28;20025;-87
2022/11/02 09:22:03;;;;;;;31.00;10.10;;;;;;;21.40;43.47;101698.66;5064216;28;20032;-92
2022/11/02 09:24:28;;;;;;;20.55;7.63;;;;;;;21.65;41.83;101680.94;5024368;28;20465;-94
2022/11/02 09:26:54;;;;;;;12.90;7.05;;;;;;;21.99;38.57;101679.09;5047011;28;20032;-88
2022/11/02 09:29:19;;;;;;;15.65;5.72;;;;;;;22.53;35.62;101689.63;5065593;28;20067;-84
2022/11/02 09:31:47;;;;;;;15.50;5.50;;;;;;;22.79;34.07;101662.84;5026640;28;20029;-84
2022/11/02 09:34:13;;;;;;;17.98;6.70;;;;;;;23.19;34.63;101673.53;5051886;28;20016;-88
2022/11/02 09:36:39;;;;;;;19.15;7.22;;;;;;;23.56;32.45;101678.28;5035054;28;20476;-85
2022/11/02 09:39:04;;;;;;;11.73;5.18;;;;;;;23.85;32.50;101670.47;5034392;28;20032;-84
2022/11/02 09:41:37;;;;;;;14.82;5.43;;;;;;;24.08;31.12;101673.69;5033463;28;20408;-91
2022/11/02 09:44:06;;;;;;;11.35;5.18;;;;;;;24.34;31.21;101674.03;5045843;28;20410;-83
2022/11/02 09:46:39;;;;;;;18.80;6.07;;;;;;;24.44;31.12;101664.28;5037267;28;20059;-85
2022/11/02 09:49:31;;;;;;;11.80;5.22;;;;;;;24.71;30.14;101661.75;5035261;28;20017;-85
2022/11/02 09:51:58;;;;;;;15.65;5.45;;;;;;;24.80;29.96;101657.44;5054941;28;20044;-94
2022/11/02 09:54:47;;;;;;;13.32;5.47;;;;;;;24.95;30.09;101655.97;5068753;28;20374;-91
2022/11/02 09:57:23;;;;;;;13.52;6.10;;;;;;;24.98;30.12;101637.19;5057501;28;20021;-94
2022/11/02 09:59:48;;;;;;;10.65;5.03;;;;;;;25.22;29.75;101651.75;5053398;28;20025;-94
2022/11/02 10:02:33;;;;;;;12.73;5.25;;;;;;;25.17;28.02;101617.75;5034738;28;20504;-84
2022/11/02 10:05:07;;;;;;;31.23;14.27;;;;;;;25.57;28.35;101645.75;5024135;28;20129;-84
2022/11/02 10:07:57;;;;;;;12.60;4.85;;;;;;;25.60;27.34;101645.44;5062078;28;20056;-92
2022/11/02 10:10:30;;;;;;;11.10;5.03;;;;;;;25.72;26.88;101642.47;5069351;28;20021;-91
2022/11/02 10:13:06;;;;;;;17.38;4.78;;;;;;;25.72;26.61;101629.19;5071178;28;20025;-85
2022/11/02 10:15:47;;;;;;;17.65;5.10;;;;;;;25.76;27.11;101627.06;5054446;28;20035;-83
2022/11/02 10:18:17;;;;;;;9.07;4.63;;;;;;;25.84;26.24;101626.34;5051103;28;20017;-85
2022/11/02 10:20:44;;;;;;;10.80;3.90;;;;;;;25.94;26.05;101609.38;5034622;28;20040;-82
2022/11/02 10:23:23;;;;;;;9.55;4.50;;;;;;;26.06;26.03;101617.13;5081605;28;20071;-85
2022/11/02 10:25:49;;;;;;;13.75;6.03;;;;;;;26.12;25.41;101616.50;5058222;28;20081;-86
2022/11/02 10:28:17;;;;;;;12.43;6.15;;;;;;;25.91;25.69;101582.34;5055298;28;20428;-95
2022/11/02 10:30:43;;;;;;;9.85;4.25;;;;;;;26.26;24.87;101608.03;5037792;28;20429;-94
2022/11/02 10:33:13;;;;;;;8.25;4.28;;;;;;;26.20;25.14;101600.66;5056094;28;20029;-86
2022/11/02 10:35:45;;;;;;;10.75;4.38;;;;;;;26.14;25.31;101596.78;5068368;28;20424;-86
2022/11/02 10:38:32;;;;;;;14.85;3.85;;;;;;;26.16;24.33;101584.25;5070580;28;20024;-86
2022/11/02 10:41:19;;;;;;;9.07;4.65;;;;;;;26.26;24.50;101589.44;5066620;28;20021;-85
2022/11/02 10:43:49;;;;;;;15.60;5.32;;;;;;;26.34;25.20;101594.78;5057823;28;20092;-90
2022/11/02 10:46:39;;;;;;;14.00;4.85;;;;;;;26.17;24.98;101566.50;5059627;28;20032;-92
2022/11/02 10:49:14;;;;;;;12.98;5.22;;;;;;;26.36;24.95;101578.75;5068184;28;20025;-86
2022/11/02 10:51:39;;;;;;;11.77;5.10;;;;;;;26.43;25.10;101579.81;5065525;28;20064;-92
2022/11/02 10:54:11;;;;;;;12.38;5.50;;;;;;;26.56;25.37;101572.28;5066792;28;20079;-85
2022/11/02 10:56:37;;;;;;;;;;;;;;;26.61;25.04;101588.56;5068913;28;20098;-87
2022/11/02 10:59:19;;;;;;;15.65;5.55;;;;;;;26.47;25.46;101578.53;5050217;28;19913;-87
2022/11/02 11:01:57;;;;;;;13.18;5.97;;;;;;;26.58;25.12;101584.41;5057932;28;20091;-86
2022/11/02 11:04:27;;;;;;;9.68;5.15;;;;;;;26.60;25.44;101578.94;5038355;28;20045;-90
2022/11/02 11:06:53;;;;;;;10.55;5.68;;;;;;;26.49;25.63;101566.75;5051310;28;20108;-85
2022/11/02 11:09:29;;;;;;;10.25;5.22;;;;;;;26.60;25.17;101578.94;5033838;28;20112;-83
2022/11/02 11:11:55;;;;;;;8.48;4.47;;;;;;;26.67;24.10;101557.91;5041545;28;20127;-85
2022/11/02 11:14:21;;;;;;;13.05;5.43;;;;;;;26.70;24.57;101555.75;5064352;28;20024;-93
2022/11/02 11:16:48;;;;;;;12.10;5.35;;;;;;;26.78;23.95;101560.28;5052319;28;20063;-82
2022/11/02 11:19:23;;;;;;;11.05;4.43;;;;;;;26.70;23.96;101552.28;5055567;28;20028;-82
2022/11/02 11:21:49;;;;;;;9.13;4.82;;;;;;;26.78;23.63;101552.31;5067683;28;20075;-85
2022/11/02 11:24:18;;;;;;;11.48;3.85;;;;;;;26.76;23.61;101562.28;5061949;28;20075;-90
2022/11/02 11:26:44;;;;;;;8.15;3.13;;;;;;;26.80;23.32;101547.69;5051649;28;20029;-83
2022/11/02 11:29:33;;;;;;;9.02;3.63;;;;;;;26.84;23.26;101559.63;5062816;28;20029;-85
2022/11/02 11:31:59;;;;;;;10.32;3.15;;;;;;;26.88;23.05;101555.69;5052362;28;20039;-83
2022/11/02 11:34:29;;;;;;;11.50;3.72;;;;;;;26.77;23.00;101524.94;5063525;28;20024;-83
2022/11/02 11:37:11;;;;;;;8.32;3.20;;;;;;;26.94;22.63;101538.28;5055368;28;20028;-83
2022/11/02 11:39:38;;;;;;;6.38;3.20;;;;;;;27.04;22.71;101550.50;5065813;28;20526;-84
2022/11/02 11:42:03;;;;;;;10.30;4.28;;;;;;;27.00;23.20;101535.81;5058411;28;20412;-90
2022/11/02 11:44:29;;;;;;;11.07;3.78;;;;;;;27.00;22.55;101535.00;5065408;28;20485;-88
2022/11/02 11:46:57;;;;;;;10.30;2.78;;;;;;;26.83;22.50;101511.03;5033014;28;20033;-90
2022/11/02 11:49:26;;;;;;;9.02;3.20;;;;;;;27.02;22.18;101535.66;5037367;28;20107;-86
2022/11/02 11:51:53;;;;;;;5.90;2.92;;;;;;;27.06;22.67;101537.06;5047081;28;20025;-85
2022/11/02 11:54:26;;;;;;;9.52;3.20;;;;;;;26.98;22.93;101521.88;5061672;28;20508;-84
2022/11/02 11:56:53;;;;;;;9.07;3.15;;;;;;;27.01;22.38;101532.19;5037493;28;20028;-84
2022/11/02 11:59:43;;;;;;;14.60;3.17;;;;;;;27.02;22.17;101536.53;5069284;28;20104;-89
2022/11/02 12:02:38;;;;;;;13.23;4.18;;;;;;;27.01;22.17;101529.53;5062711;28;20059;-90
2022/11/02 12:05:14;;;;;;;10.27;3.75;;;;;;;26.92;21.73;101519.84;5046188;28;20508;-85
2022/11/02 12:07:57;;;;;;;12.00;5.50;;;;;;;27.01;21.51;101537.50;5061010;28;20040;-83
2022/11/02 12:11:09;;;;;;;10.38;5.05;;;;;;;26.83;22.17;101524.28;5070081;28;20086;-84
2022/11/02 12:13:35;;;;;;;8.38;3.88;;;;;;;26.88;22.09;101531.81;5016757;28;20120;-86
2022/11/02 12:16:42;;;;;;;8.35;2.97;;;;;;;26.79;21.59;101503.56;5070890;28;20119;-88
2022/11/02 12:19:55;;;;;;;16.98;6.80;;;;;;;26.79;22.51;101530.09;5014258;28;20450;-87
2022/11/02 12:23:13;;;;;;;16.05;6.30;;;;;;;26.77;22.43;101516.16;5047874;28;20043;-91
2022/11/02 12:26:03;;;;;;;21.92;8.38;;;;;;;26.72;22.50;101519.28;5054116;28;20601;-95
2022/11/02 12:28:41;;;;;;;17.58;9.18;;;;;;;26.64;22.83;101516.56;5075612;28;20063;-92
2022/11/02 12:31:09;;;;;;;20.15;8.50;;;;;;;26.66;22.50;101519.94;5098956;28;20028;-85
2022/11/02 12:33:53;;;;;;;21.13;9.70;;;;;;;26.64;22.60;101519.22;5087275;28;20404;-94
2022/11/02 12:36:25;;;;;;;25.33;11.77;;;;;;;26.52;22.81;101512.53;5088473;28;20028;-86
2022/11/02 12:39:02;;;;;;;30.85;13.88;;;;;;;26.37;22.85;101514.94;5089911;28;20919;-88
2022/11/02 12:41:44;;;;;;;26.15;12.75;;;;;;;26.21;23.12;101498.88;5085261;28;20061;-85
2022/11/02 12:44:38;;;;;;;22.58;10.57;;;;;;;26.25;23.71;101510.84;5080030;28;20027;-90
2022/11/02 12:47:03;;;;;;;13.25;7.25;;;;;;;26.23;24.00;101523.44;5081977;28;20024;-92
2022/11/02 12:49:54;;;;;;;17.20;8.15;;;;;;;26.14;23.97;101503.97;5071435;28;20036;-84
2022/11/02 12:52:19;;;;;;;17.60;6.35;;;;;;;25.98;24.08;101493.28;5065250;28;20020;-82
2022/11/02 12:54:51;;;;;;;14.23;5.60;;;;;;;26.07;23.71;101497.66;5078931;28;20032;-81
2022/11/02 12:57:21;;;;;;;21.05;6.57;;;;;;;26.00;23.12;101501.91;5052550;28;20036;-85
2022/11/02 12:59:48;;;;;;;12.35;5.45;;;;;;;25.65;23.10;101455.03;5035689;28;20520;-84
2022/11/02 13:02:20;;;;;;;12.18;5.53;;;;;;;25.74;23.13;101480.63;5052505;28;20045;-82
2022/11/02 13:04:51;;;;;;;12.98;5.65;;;;;;;25.86;22.55;101505.09;5041622;28;20060;-81
2022/11/02 13:07:28;;;;;;;10.93;5.57;;;;;;;25.77;22.96;101513.97;5069577;28;20119;-80
2022/11/02 13:10:16;;;;;;;18.20;6.45;;;;;;;25.70;23.35;101511.91;5051867;28;20041;-83
2022/11/02 13:12:42;;;;;;;13.73;5.10;;;;;;;25.63;23.44;101504.69;5068693;28;20400;-86
2022/11/02 13:15:17;;;;;;;9.55;5.25;;;;;;;25.58;22.93;101506.97;5068300;28;20024;-86
2022/11/02 13:17:44;;;;;;;10.13;4.47;;;;;;;25.58;22.86;101506.97;5050809;28;20029;-92
2022/11/02 13:20:24;;;;;;;11.15;4.38;;;;;;;25.48;23.06;101515.00;5049481;28;20493;-83
2022/11/02 13:22:55;;;;;;;14.13;4.72;;;;;;;25.12;23.35;101466.44;5032288;28;20115;-82
2022/11/02 13:25:50;;;;;;;12.13;5.40;;;;;;;25.29;23.79;101500.06;5035492;28;20104;-83
2022/11/02 13:28:39;;;;;;;17.70;6.40;;;;;;;25.24;24.11;101499.66;5060552;28;20052;-89
2022/11/02 13:31:05;;;;;;;15.93;6.85;;;;;;;25.17;24.40;101498.59;5059915;28;20932;-85
2022/11/02 13:33:39;;;;;;;11.18;5.90;;;;;;;25.15;24.54;101501.41;5070669;28;20486;-86
2022/11/02 13:36:05;;;;;;;11.43;4.90;;;;;;;25.15;24.77;101511.16;5051045;28;20021;-84
2022/11/02 13:38:33;;;;;;;13.48;5.38;;;;;;;25.00;24.87;101502.84;5036331;28;20035;-84
2022/11/02 13:41:21;;;;;;;17.33;6.18;;;;;;;25.07;24.71;101509.28;5066805;28;20029;-83
2022/11/02 13:44:11;;;;;;;11.65;6.22;;;;;;;25.00;24.85;101502.03;5052176;28;20033;-84
2022/11/02 13:47:00;;;;;;;12.10;5.55;;;;;;;24.99;24.96;101500.38;5052638;28;20124;-84
2022/11/02 13:49:38;;;;;;;13.93;6.47;;;;;;;25.00;25.16;101504.69;5063294;28;20029;-85
2022/11/02 13:52:13;;;;;;;14.05;6.45;;;;;;;24.93;25.14;101500.94;5070845;28;20028;-86
2022/11/02 13:54:41;;;;;;;12.18;6.60;;;;;;;25.01;25.41;101523.06;5059914;28;20099;-85
2022/11/02 13:57:29;;;;;;;19.10;6.15;;;;;;;24.96;25.79;101500.63;5068001;28;20048;-87
2022/11/02 13:59:55;;;;;;;13.75;6.28;;;;;;;24.97;25.38;101507.59;5063457;28;20056;-87
2022/11/02 14:02:20;;;;;;;14.85;6.63;;;;;;;24.95;25.29;101515.69;5040537;28;20049;-94
2022/11/02 14:04:47;;;;;;;13.75;5.72;;;;;;;24.81;25.36;101513.53;5031212;28;20056;-86
2022/11/02 14:07:41;;;;;;;15.85;7.93;;;;;;;24.80;25.84;101515.34;5064270;28;20022;-88
2022/11/02 14:10:10;;;;;;;14.50;6.65;;;;;;;24.67;26.10;101520.13;5070961;28;20489;-90
2022/11/02 14:12:41;;;;;;;15.18;6.10;;;;;;;24.94;25.95;101507.91;5083429;28;20095;-79
2022/11/02 14:15:12;;;;;;;14.55;6.35;;;;;;;25.45;25.29;101518.75;5067719;28;20039;-80
2022/11/02 14:17:53;;;;;;;13.85;5.97;;;;;;;25.12;25.77;101511.47;5084150;28;20024;-81
2022/11/02 14:20:43;;;;;;;13.15;6.20;;;;;;;25.02;26.23;101510.69;5093916;28;20501;-82
2022/11/02 14:23:13;;;;;;;16.00;6.43;;;;;;;24.84;26.35;101514.06;5074431;28;20058;-86
2022/11/02 14:25:44;;;;;;;13.45;6.97;;;;;;;24.71;26.76;101516.22;5092723;28;20069;-86
2022/11/02 14:28:24;;;;;;;12.80;6.35;;;;;;;24.68;27.04;101521.81;5070963;28;20020;-90
2022/11/02 14:31:01;;;;;;;20.73;7.32;;;;;;;24.67;26.95;101521.94;5070555;28;20078;-88
2022/11/02 14:33:48;;;;;;;22.55;7.53;;;;;;;24.75;26.76;101528.19;5071723;28;20085;-92
2022/11/02 14:36:17;;;;;;;13.77;6.38;;;;;;;24.33;27.28;101485.44;5070729;28;20044;-87
2022/11/02 14:38:58;;;;;;;14.07;7.07;;;;;;;24.34;27.63;101526.78;5071735;28;20047;-92
2022/11/02 14:41:55;;;;;;;17.77;6.80;;;;;;;24.07;28.19;101516.91;5072473;28;20056;-87
2022/11/02 14:44:48;;;;;;;17.67;7.80;;;;;;;23.91;27.20;101521.94;5077024;28;20050;-86
2022/11/02 14:47:14;;;;;;;13.90;6.90;;;;;;;23.75;27.78;101499.53;5097828;28;20072;-90
2022/11/02 14:49:55;;;;;;;15.65;6.93;;;;;;;23.67;28.15;101517.88;5081753;28;20497;-86
2022/11/02 14:52:27;;;;;;;16.02;7.32;;;;;;;23.69;28.22;101526.50;5090784;28;20516;-93
2022/11/02 14:55:05;;;;;;;16.05;7.32;;;;;;;23.62;26.80;101525.41;5092371;28;20020;-89
2022/11/02 14:57:40;;;;;;;19.67;8.98;;;;;;;23.52;26.65;101513.97;5092264;28;20024;-84
2022/11/02 15:00:20;;;;;;;22.80;9.40;;;;;;;23.36;26.83;101495.19;5073976;28;20409;-88
2022/11/02 15:02:46;;;;;;;29.95;11.98;;;;;;;23.44;25.81;101519.94;5075125;28;20048;-93
2022/11/02 15:05:27;;;;;;;14.32;7.57;;;;;;;23.25;25.21;101493.50;5072991;28;20028;-91
2022/11/02 15:08:00;;;;;;;12.00;5.93;;;;;;;23.20;25.16;101500.97;5091235;28;20024;-90
